Time;durP1;ratioP1;P1;durP2;ratioP2;P2;SDS_P1;SDS_P2;PMS_P1;PMS_P2;Temp;Humidity;BMP_temperature;BMP_pressure;BME280_temperature;BME280_humidity;BME280_pressure;Samples;Min_cycle;Max_cycle;Signal;HPM_P1;HPM_P2
2023/01/26 00:02:01;;;;;;;41.90;21.23;;;1.30;99.90;;;4.97;55.94;98139.84;5023655;28;20163;-45
2023/01/26 00:04:29;;;;;;;42.70;20.67;;;1.40;99.90;;;5.00;56.07;98133.50;5031797;28;20128;-44
2023/01/26 00:06:56;;;;;;;43.07;21.40;;;1.40;99.90;;;5.04;55.88;98130.53;5031351;28;20045;-48
2023/01/26 00:09:24;;;;;;;42.63;21.83;;;1.50;99.90;;;5.07;56.15;98127.66;5038211;28;20413;-45
2023/01/26 00:11:52;;;;;;;39.80;18.10;;;1.50;99.90;;;5.09;55.79;98122.25;5031278;28;20060;-48
2023/01/26 00:14:20;;;;;;;43.30;19.37;;;1.60;99.90;;;5.10;55.95;98118.69;5031657;28;20046;-46
2023/01/26 00:16:47;;;;;;;36.57;17.90;;;1.60;99.90;;;5.13;56.15;98115.78;5031865;28;20044;-48
2023/01/26 00:19:15;;;;;;;40.73;20.30;;;1.50;99.90;;;5.15;55.87;98115.69;5031513;28;20041;-46
2023/01/26 00:21:43;;;;;;;38.23;17.93;;;1.60;99.90;;;5.16;56.16;98106.78;5031096;28;20041;-45
2023/01/26 00:24:11;;;;;;;36.80;17.47;;;1.60;99.90;;;5.20;55.45;98100.34;5031387;28;20037;-48
2023/01/26 00:26:39;;;;;;;36.37;18.23;;;1.60;99.90;;;5.20;55.77;98093.28;5031390;28;20504;-48
2023/01/26 00:29:06;;;;;;;41.37;17.57;;;1.60;99.90;;;5.21;55.47;98096.75;5031145;28;20049;-47
2023/01/26 00:31:34;;;;;;;39.03;18.63;;;1.50;99.90;;;5.16;55.27;98088.31;5029696;28;20212;-48
2023/01/26 00:34:02;;;;;;;38.67;16.17;;;1.40;99.90;;;5.15;55.01;98091.94;5037869;28;20045;-45
2023/01/26 00:36:30;;;;;;;40.73;17.57;;;1.40;99.90;;;5.12;55.63;98091.22;5030004;28;20464;-46
2023/01/26 00:38:58;;;;;;;39.33;18.37;;;1.40;99.90;;;5.13;55.13;98092.88;5031774;28;20052;-46
2023/01/26 00:44:30;;;;;;;36.87;16.37;;;1.40;99.90;;;5.19;55.36;98077.53;5015789;28;20049;-47
2023/01/26 00:46:57;;;;;;;36.73;17.57;;;1.50;99.90;;;5.17;55.77;98074.19;5030628;28;20105;-44
2023/01/26 00:49:27;;;;;;;33.77;14.70;;;1.40;99.90;;;5.13;55.41;98071.75;5021852;28;20041;-49
2023/01/26 00:51:54;;;;;;;36.17;15.60;;;1.40;99.90;;;5.07;55.52;98077.50;5037301;28;20413;-45
2023/01/26 00:54:23;;;;;;;33.10;15.57;;;1.30;99.90;;;5.00;55.34;98073.69;5031239;28;20045;-46
2023/01/26 00:56:51;;;;;;;39.57;18.97;;;1.30;99.90;;;5.01;55.68;98072.69;5029574;28;20041;-47
2023/01/26 00:59:19;;;;;;;35.87;16.43;;;1.30;99.90;;;4.99;55.59;98071.97;5037858;28;20504;-47
2023/01/26 01:01:48;;;;;;;54.60;22.80;;;1.20;99.90;;;4.96;55.88;98072.19;5030399;28;20056;-48
2023/01/26 01:04:16;;;;;;;36.17;16.40;;;1.20;99.90;;;4.97;55.76;98068.63;5030876;28;20049;-48
2023/01/26 01:06:44;;;;;;;43.23;19.37;;;1.20;99.90;;;4.98;56.16;98067.63;5030672;28;20049;-45
2023/01/26 01:09:12;;;;;;;93.10;35.87;;;1.20;99.90;;;4.98;55.37;98070.28;5037360;28;20056;-47
2023/01/26 01:11:41;;;;;;;140.60;54.63;;;1.20;99.90;;;5.00;55.58;98068.41;5037040;28;20049;-48
2023/01/26 01:14:09;;;;;;;75.47;32.20;;;1.30;99.90;;;5.04;55.58;98069.84;5029584;28;20405;-45
2023/01/26 01:16:38;;;;;;;56.37;24.90;;;1.30;99.90;;;5.09;55.15;98072.13;5013411;28;20038;-47
2023/01/26 01:19:06;;;;;;;34.20;16.90;;;1.40;99.90;;;5.10;56.08;98065.91;5037443;28;20045;-45
2023/01/26 01:21:35;;;;;;;32.07;15.30;;;1.40;99.90;;;5.05;55.07;98060.94;5039108;28;20050;-45
2023/01/26 01:24:03;;;;;;;28.43;14.77;;;1.30;99.90;;;4.98;55.65;98070.28;5026668;28;20033;-46
2023/01/26 01:26:32;;;;;;;31.27;15.53;;;1.20;99.90;;;4.91;55.24;98069.91;5042362;28;20049;-47
2023/01/26 01:29:00;;;;;;;26.90;14.73;;;1.20;99.90;;;4.86;55.57;98069.41;5031789;28;20048;-46
2023/01/26 01:31:28;;;;;;;28.60;13.03;;;1.20;99.90;;;4.84;55.38;98063.41;5032114;28;20041;-49
2023/01/26 01:33:56;;;;;;;31.27;15.00;;;1.10;99.90;;;4.83;55.51;98061.75;5034671;28;20409;-45
2023/01/26 01:36:24;;;;;;;32.13;14.77;;;1.20;99.90;;;4.83;55.94;98058.28;5032271;28;20419;-45
2023/01/26 01:38:52;;;;;;;31.87;13.90;;;1.20;99.90;;;4.86;55.63;98053.56;5034400;28;20057;-49
2023/01/26 01:41:21;;;;;;;26.00;12.87;;;1.20;99.90;;;4.87;55.27;98049.16;5034168;28;20414;-48
2023/01/26 01:43:51;;;;;;;32.93;13.53;;;1.20;99.90;;;4.87;55.05;98059.72;5032982;28;20045;-46
2023/01/26 01:46:34;;;;;;;34.10;15.03;;;1.20;99.90;;;4.79;55.52;98044.47;5041597;28;20041;-48
2023/01/26 01:49:16;;;;;;;28.63;15.33;;;1.10;99.90;;;4.74;55.59;98042.16;5033010;28;20064;-48
2023/01/26 01:51:57;;;;;;;28.43;14.20;;;1.10;99.90;;;4.69;55.90;98036.41;5032592;28;20049;-49
2023/01/26 01:54:47;;;;;;;34.60;13.93;;;1.10;99.90;;;4.67;55.72;98032.19;5033092;28;20045;-47
2023/01/26 01:57:27;;;;;;;33.83;16.03;;;1.00;99.90;;;4.67;55.41;98038.31;5026428;28;20395;-47
2023/01/26 02:00:10;;;;;;;30.27;14.77;;;1.00;99.90;;;4.67;55.36;98033.03;5025400;28;20053;-45
2023/01/26 02:02:43;;;;;;;30.93;14.87;;;1.10;99.90;;;4.70;56.16;98037.22;5033927;28;20049;-45
2023/01/26 02:05:31;;;;;;;31.80;15.60;;;1.00;99.90;;;4.69;55.82;98041.66;5033187;28;20045;-44
2023/01/26 02:08:00;;;;;;;35.70;15.60;;;1.00;99.90;;;4.77;55.92;98037.59;5040878;28;20057;-47
2023/01/26 02:10:29;;;;;;;38.97;16.57;;;1.10;99.90;;;4.79;55.72;98047.09;5034036;28;20061;-46
2023/01/26 02:13:00;;;;;;;35.47;14.43;;;1.10;99.90;;;4.80;55.86;98040.03;5032298;28;20049;-49
2023/01/26 02:15:29;;;;;;;28.97;13.00;;;1.10;99.90;;;4.78;55.74;98042.75;5032848;28;20413;-47
2023/01/26 02:18:03;;;;;;;30.37;12.07;;;1.10;99.90;;;4.74;55.77;98033.41;5023828;28;20049;-45
2023/01/26 02:20:50;;;;;;;25.80;12.45;;;1.00;99.90;;;4.63;55.59;98028.91;5031730;28;20064;-47
2023/01/26 02:24:01;;;;;;;31.47;13.47;;;1.00;99.90;;;4.59;56.07;98029.28;5026205;28;20050;-45
2023/01/26 02:26:33;;;;;;;23.87;12.07;;;0.90;99.90;;;4.54;55.92;98029.63;5027849;28;20088;-47
2023/01/26 02:29:06;;;;;;;28.40;13.40;;;0.90;99.90;;;4.53;55.94;98023.50;5024574;28;20516;-45
2023/01/26 02:31:39;;;;;;;26.63;13.70;;;0.80;99.90;;;4.50;56.04;98021.09;5031697;28;20053;-48
2023/01/26 02:34:07;;;;;;;32.63;13.70;;;0.80;99.90;;;4.47;56.12;98015.22;5008265;28;20048;-45
2023/01/26 02:36:36;;;;;;;28.70;12.00;;;0.80;99.90;;;4.49;56.08;98016.75;5032168;28;20517;-48
2023/01/26 02:39:43;;;;;;;24.80;11.43;;;0.90;99.90;;;4.45;56.32;98010.03;5040281;28;20037;-46
2023/01/26 02:44:59;;;;;;;30.00;12.50;;;0.90;99.90;;;4.43;56.18;98011.13;5040879;28;20186;-46
2023/01/26 02:47:29;;;;;;;28.20;14.13;;;0.80;99.90;;;4.46;56.50;98017.00;5040205;28;20049;-47
2023/01/26 02:49:59;;;;;;;30.30;13.00;;;0.90;99.90;;;4.54;56.69;98011.16;5023462;28;20098;-46
2023/01/26 02:52:32;;;;;;;30.37;12.57;;;1.00;99.90;;;4.60;55.93;98015.97;5032693;28;20064;-49
2023/01/26 02:55:29;;;;;;;27.67;14.40;;;1.10;99.90;;;4.64;55.97;98016.59;5031829;28;20052;-45
2023/01/26 02:58:01;;;;;;;25.77;13.00;;;1.10;99.90;;;4.69;55.71;98015.28;5032242;28;20045;-45
2023/01/26 03:00:36;;;;;;;26.27;12.83;;;1.20;99.90;;;4.75;55.58;98014.00;5031880;28;20049;-46
2023/01/26 03:03:20;;;;;;;29.03;12.60;;;1.20;99.90;;;4.76;56.16;98013.03;5023547;28;20064;-45
2023/01/26 03:05:51;;;;;;;23.67;12.27;;;1.20;99.90;;;4.79;55.35;98010.16;5008861;28;20041;-47
2023/01/26 03:08:18;;;;;;;28.87;12.73;;;1.20;99.90;;;4.74;55.79;98013.13;5032173;28;20045;-46
2023/01/26 03:10:46;;;;;;;24.00;12.27;;;1.10;99.90;;;4.62;55.67;98000.88;5031518;28;20049;-45
2023/01/26 03:13:14;;;;;;;29.67;12.27;;;1.00;99.90;;;4.52;56.06;98002.53;5032794;28;20036;-46
2023/01/26 03:15:51;;;;;;;28.93;12.80;;;0.80;99.90;;;4.50;56.17;97999.19;5015323;28;20041;-48
2023/01/26 03:29:35;;;;;;;27.87;11.63;;;0.80;99.90;;;4.47;56.24;97980.94;5031388;28;20049;-45
2023/01/26 03:32:03;;;;;;;30.57;13.23;;;0.90;99.90;;;4.49;56.45;97976.38;5023178;28;20058;-48
2023/01/26 03:34:32;;;;;;;22.07;11.50;;;0.90;99.90;;;4.52;56.18;97981.44;5030678;28;20056;-47
2023/01/26 03:37:00;;;;;;;24.33;11.73;;;1.00;99.90;;;4.51;56.03;97979.75;5031117;28;20045;-45
2023/01/26 03:56:31;;;;;;;25.30;12.03;;;0.70;99.90;;;4.30;56.32;97963.72;5025789;28;20053;-46
2023/01/26 03:59:07;;;;;;;26.63;13.70;;;0.60;99.90;;;4.24;56.15;97964.19;5030965;28;20045;-44
2023/01/26 04:10:10;;;;;;;24.63;12.57;;;0.60;99.90;;;4.25;56.93;97955.34;5038826;28;20048;-51
2023/01/26 04:12:39;;;;;;;25.20;13.17;;;0.60;99.90;;;4.27;56.42;97956.91;5038936;28;20056;-48
2023/01/26 04:23:44;;;;;;;26.53;13.00;;;0.60;99.90;;;4.20;56.34;97968.84;5030590;28;20050;-47
2023/01/26 04:26:12;;;;;;;27.17;12.83;;;0.60;99.90;;;4.22;56.17;97966.94;5038424;28;20046;-46
2023/01/26 04:28:40;;;;;;;25.87;12.17;;;0.60;99.90;;;4.20;56.63;97960.94;5031440;28;20037;-46
2023/01/26 04:31:08;;;;;;;28.23;12.40;;;0.60;99.90;;;4.17;56.58;97962.94;5025803;28;20050;-44
2023/01/26 04:33:37;;;;;;;22.67;11.53;;;0.60;99.90;;;3.95;57.34;97961.91;5038311;28;20516;-44
2023/01/26 04:36:08;;;;;;;29.87;13.40;;;0.30;99.90;;;3.92;57.26;97970.88;5029707;28;20505;-45
2023/01/26 04:38:40;;;;;;;26.73;12.60;;;0.20;99.90;;;4.00;57.11;97967.69;5037779;28;20053;-45
2023/01/26 04:41:09;;;;;;;26.47;11.67;;;0.30;99.90;;;4.03;57.10;97962.19;5013068;28;20053;-46
2023/01/26 04:43:43;;;;;;;29.90;13.23;;;0.40;99.90;;;4.07;56.48;97962.78;5038435;28;20053;-44
2023/01/26 04:46:11;;;;;;;25.37;12.97;;;0.40;99.90;;;4.05;56.84;97962.06;5029482;28;20045;-49
2023/01/26 04:48:40;;;;;;;28.77;13.77;;;0.40;99.90;;;4.06;56.61;97961.13;5037915;28;20054;-46
2023/01/26 04:51:20;;;;;;;28.10;13.97;;;0.50;99.90;;;4.04;56.83;97958.59;5030694;28;20056;-44
2023/01/26 04:53:49;;;;;;;25.97;11.43;;;0.40;99.90;;;4.00;56.95;97962.41;5014150;28;20386;-44
2023/01/26 04:56:30;;;;;;;25.20;12.93;;;0.40;99.90;;;3.93;56.78;97953.25;5022526;28;20041;-46
2023/01/26 04:59:06;;;;;;;27.13;12.17;;;0.30;99.90;;;3.95;56.79;97948.72;5029702;28;20049;-43
2023/01/26 05:01:36;;;;;;;26.20;11.30;;;0.30;99.90;;;3.99;56.57;97950.19;5037297;28;20543;-44
2023/01/26 05:04:07;;;;;;;22.07;12.37;;;0.40;99.90;;;3.96;56.84;97950.41;5037893;28;20045;-47
2023/01/26 05:06:38;;;;;;;28.43;13.73;;;0.30;99.90;;;3.90;56.45;97949.06;5037941;28;20048;-47
2023/01/26 05:09:07;;;;;;;24.90;12.43;;;0.20;99.90;;;3.81;56.62;97956.81;5028920;28;20060;-46
2023/01/26 05:11:37;;;;;;;22.83;12.77;;;0.10;99.90;;;3.84;57.21;97946.88;5038033;28;20053;-48
2023/01/26 05:14:20;;;;;;;26.23;12.20;;;0.20;99.90;;;3.87;56.72;97948.44;5038958;28;20382;-48
2023/01/26 05:17:15;;;;;;;25.33;12.33;;;0.30;99.90;;;3.90;56.58;97953.50;5029373;28;20057;-45
2023/01/26 05:19:43;;;;;;;19.63;10.30;;;0.30;99.90;;;3.93;56.88;97953.25;5030706;28;20394;-48
2023/01/26 05:22:11;;;;;;;21.80;11.30;;;0.30;99.90;;;4.00;56.53;97951.03;5030665;28;20053;-43
2023/01/26 05:24:45;;;;;;;26.75;11.65;;;0.30;99.90;;;3.96;56.58;97949.59;5029794;28;20049;-50
2023/01/26 05:27:27;;;;;;;26.50;11.60;;;0.30;99.90;;;3.86;56.58;97950.25;5037804;28;20049;-46
2023/01/26 05:30:01;;;;;;;24.47;11.80;;;0.20;99.90;;;3.78;56.59;97952.59;5037110;28;20053;-46
2023/01/26 05:32:32;;;;;;;;;;;0.20;99.90;;;3.72;56.68;97953.03;5029803;28;20052;-48
2023/01/26 05:35:00;;;;;;;26.57;11.97;;;0.10;99.90;;;3.82;56.60;97958.47;5028933;28;19924;-46
2023/01/26 05:37:30;;;;;;;25.47;12.63;;;0.10;99.90;;;3.83;56.54;97958.38;5013404;28;20501;-48
2023/01/26 05:39:59;;;;;;;25.03;12.90;;;0.20;99.90;;;3.84;57.03;97959.19;5028922;28;20057;-43
2023/01/26 05:42:27;;;;;;;32.30;14.47;;;0.20;99.90;;;3.88;56.85;97955.41;5029693;28;20056;-43
2023/01/26 05:45:15;;;;;;;30.17;14.83;;;0.30;99.90;;;3.95;56.88;97951.34;5029110;28;20046;-45
2023/01/26 05:47:45;;;;;;;29.90;14.33;;;0.30;99.90;;;3.98;56.65;97958.22;5021535;28;20069;-45
2023/01/26 05:50:14;;;;;;;28.93;12.27;;;0.40;99.90;;;3.92;56.89;97955.06;5029293;28;20065;-46
2023/01/26 05:52:45;;;;;;;28.87;13.33;;;0.30;99.90;;;3.94;57.11;97963.69;5021229;28;20062;-45
2023/01/26 05:55:14;;;;;;;23.27;12.50;;;0.30;99.90;;;3.98;56.82;97953.78;5029590;28;20050;-46
2023/01/26 05:57:43;;;;;;;21.10;11.37;;;0.30;99.90;;;3.98;56.43;97955.59;5029201;28;20061;-46
2023/01/26 06:00:13;;;;;;;22.00;11.93;;;0.30;99.90;;;3.92;56.54;97951.59;5029409;28;20553;-47
2023/01/26 06:02:43;;;;;;;23.33;11.43;;;0.20;99.90;;;3.92;56.28;97947.16;5037522;28;20045;-45
2023/01/26 06:05:13;;;;;;;26.07;11.67;;;0.30;99.90;;;4.01;56.91;97952.72;5037280;28;20050;-44
2023/01/26 06:07:44;;;;;;;27.87;11.63;;;0.40;99.90;;;4.03;56.33;97945.53;5031532;28;20409;-48
2023/01/26 06:10:17;;;;;;;25.23;11.50;;;0.30;99.90;;;3.99;56.35;97955.44;5032505;28;20045;-48
2023/01/26 06:12:58;;;;;;;19.70;9.47;;;0.30;99.90;;;3.97;56.42;97952.09;5032890;28;20060;-48
2023/01/26 06:15:38;;;;;;;20.57;10.90;;;0.30;99.90;;;3.93;56.25;97955.91;5032949;28;20420;-49
2023/01/26 06:18:05;;;;;;;24.23;10.77;;;0.30;99.90;;;3.90;55.89;97949.06;5033183;28;20057;-48
2023/01/26 06:20:35;;;;;;;20.90;10.87;;;0.30;99.90;;;3.92;56.45;97957.69;5033025;28;20050;-50
2023/01/26 06:23:10;;;;;;;28.63;11.17;;;0.20;99.90;;;3.88;56.06;97955.41;5040429;28;20046;-47
2023/01/26 06:25:39;;;;;;;25.05;11.98;;;0.20;99.90;;;3.89;56.60;97952.66;5032723;28;20049;-45
2023/01/26 06:28:07;;;;;;;21.83;11.17;;;0.30;99.90;;;3.92;56.76;97955.06;5032286;28;20420;-49
2023/01/26 06:30:36;;;;;;;22.47;11.40;;;0.30;99.90;;;4.00;56.22;97953.69;5032456;28;20072;-45
2023/01/26 06:33:09;;;;;;;23.20;10.57;;;0.40;99.90;;;3.97;56.28;97949.44;5024021;28;20080;-46
2023/01/26 06:35:37;;;;;;;29.60;12.70;;;0.30;99.90;;;3.92;56.13;97957.69;5032364;28;20041;-48
2023/01/26 06:38:10;;;;;;;25.37;11.40;;;0.30;99.90;;;3.94;56.32;97957.59;5032843;28;20673;-49
2023/01/26 06:40:38;;;;;;;23.83;12.27;;;0.20;99.90;;;3.94;56.07;97958.44;5032434;28;20050;-46
2023/01/26 06:43:06;;;;;;;19.47;10.73;;;0.20;99.90;;;3.94;56.06;97955.78;5040239;28;20060;-46
2023/01/26 06:45:34;;;;;;;23.07;11.57;;;0.20;99.90;;;3.99;56.42;97963.34;5032309;28;20046;-47
2023/01/26 06:48:02;;;;;;;25.20;11.37;;;0.30;99.90;;;3.96;55.84;97963.59;5032058;28;20053;-47
2023/01/26 06:50:35;;;;;;;24.93;11.30;;;0.30;99.90;;;3.93;56.11;97953.25;5040498;28;20049;-45
2023/01/26 06:53:32;;;;;;;19.17;10.20;;;0.30;99.90;;;3.90;56.50;97953.50;5031801;28;20045;-47
2023/01/26 06:56:20;;;;;;;17.93;10.97;;;0.30;99.90;;;3.97;55.86;97961.78;5033681;28;20565;-45
2023/01/26 06:59:09;;;;;;;19.57;9.77;;;0.30;99.90;;;4.00;56.38;97958.94;5031993;28;20049;-47
2023/01/26 07:01:52;;;;;;;24.67;10.98;;;0.30;99.90;;;3.94;55.94;97962.88;5031536;28;20056;-47
2023/01/26 07:04:20;;;;;;;21.10;9.83;;;0.30;99.90;;;3.93;55.86;97964.63;5031909;28;20062;-44
2023/01/26 07:06:47;;;;;;;23.10;10.90;;;0.30;99.90;;;3.94;56.06;97965.50;5032841;28;20045;-47
2023/01/26 07:09:15;;;;;;;23.97;9.77;;;0.30;99.90;;;3.97;56.19;97965.25;5032702;28;20519;-44
2023/01/26 07:11:43;;;;;;;21.27;10.13;;;0.40;99.90;;;3.99;56.00;97970.41;5032720;28;20493;-45
2023/01/26 07:14:11;;;;;;;19.77;10.57;;;0.30;99.90;;;3.97;55.97;97962.63;5033459;28;20041;-46
2023/01/26 07:16:39;;;;;;;22.73;10.30;;;0.30;99.90;;;3.90;56.07;97978.03;5032634;28;20045;-45
2023/01/26 07:19:06;;;;;;;21.57;10.53;;;0.20;99.90;;;3.92;56.36;97978.78;5031750;28;20042;-46
2023/01/26 07:21:34;;;;;;;24.90;12.20;;;0.30;99.90;;;3.96;56.26;97975.94;5032539;28;20044;-44
2023/01/26 07:24:03;;;;;;;24.37;11.57;;;0.30;99.90;;;3.93;55.95;97980.44;5040778;28;20109;-49
2023/01/26 07:26:31;;;;;;;25.50;12.13;;;0.20;99.90;;;3.95;55.97;97977.69;5032914;28;20420;-49
2023/01/26 07:28:58;;;;;;;22.53;11.93;;;0.30;99.90;;;3.96;55.83;97982.03;5032555;28;20049;-46
2023/01/26 07:31:26;;;;;;;20.20;11.80;;;0.20;99.90;;;3.95;56.53;97982.97;5021198;28;20093;-46
2023/01/26 07:33:54;;;;;;;22.13;11.83;;;0.20;99.90;;;4.00;56.18;97985.28;5032147;28;20041;-49
2023/01/26 07:36:22;;;;;;;25.63;11.70;;;0.30;99.90;;;3.98;56.47;97984.56;5032751;28;20041;-46
2023/01/26 07:38:50;;;;;;;27.43;12.10;;;0.20;99.90;;;3.97;56.41;97985.50;5032440;28;20048;-44
2023/01/26 07:41:18;;;;;;;29.80;13.37;;;0.30;99.90;;;3.98;55.99;97979.28;5031872;28;20056;-46
2023/01/26 07:43:45;;;;;;;23.27;12.17;;;0.30;99.90;;;4.00;55.99;97982.66;5026873;28;20046;-45
2023/01/26 07:46:13;;;;;;;20.10;11.40;;;0.30;99.90;;;4.03;56.26;97985.91;5030790;28;20072;-46
2023/01/26 07:48:41;;;;;;;19.70;9.40;;;0.30;99.90;;;4.04;56.07;97976.22;5032196;28;20041;-46
2023/01/26 07:51:09;;;;;;;23.00;10.97;;;0.30;99.90;;;4.05;55.91;97976.09;5047034;28;20060;-43
2023/01/26 07:53:42;;;;;;;20.03;10.50;;;0.30;99.90;;;4.03;55.66;97985.06;5032205;28;20049;-49
2023/01/26 07:56:13;;;;;;;21.07;9.40;;;0.30;99.90;;;4.04;56.18;97978.84;5031872;28;20052;-44
2023/01/26 07:58:41;;;;;;;20.47;10.33;;;0.30;99.90;;;4.07;55.88;97981.22;5014982;28;20033;-47
2023/01/26 08:01:12;;;;;;;22.73;10.23;;;0.40;99.90;;;4.11;56.04;97974.78;5030524;28;20409;-47
2023/01/26 08:03:41;;;;;;;20.40;9.77;;;0.40;99.90;;;4.11;55.56;97975.66;5030651;28;20040;-46
2023/01/26 08:06:09;;;;;;;19.00;9.83;;;0.40;99.90;;;4.09;55.36;97980.19;5031861;28;20046;-45
2023/01/26 08:08:40;;;;;;;21.20;10.03;;;0.40;99.90;;;4.05;55.76;97988.41;5032355;28;20064;-45
2023/01/26 08:11:10;;;;;;;22.87;10.93;;;0.40;99.90;;;4.02;55.68;97989.47;5031161;28;20050;-49
2023/01/26 08:13:38;;;;;;;20.10;10.00;;;0.40;99.90;;;3.99;55.84;97980.97;5030370;28;20045;-44
2023/01/26 08:16:10;;;;;;;22.10;9.37;;;0.30;99.90;;;3.95;55.43;97985.59;5031146;28;20045;-45
2023/01/26 08:18:41;;;;;;;20.13;9.83;;;0.20;99.90;;;3.96;55.65;97984.66;5030531;28;20033;-47
2023/01/26 08:21:11;;;;;;;16.80;8.93;;;0.30;99.90;;;4.03;55.28;97987.69;5031275;28;20287;-48
2023/01/26 08:23:40;;;;;;;20.47;10.60;;;0.30;99.90;;;4.00;54.90;97991.38;5030537;28;20493;-46
2023/01/26 08:26:11;;;;;;;16.70;9.13;;;0.30;99.90;;;3.99;55.68;97989.69;5031265;28;20068;-47
2023/01/26 08:28:39;;;;;;;19.97;10.13;;;0.30;99.90;;;4.01;55.51;97989.59;5030488;28;20521;-45
2023/01/26 08:31:16;;;;;;;16.57;9.33;;;0.30;99.90;;;4.02;55.73;97975.47;5029818;28;20465;-47
2023/01/26 08:33:49;;;;;;;22.23;10.97;;;0.30;99.90;;;4.03;55.44;97980.66;5030911;28;20046;-43
2023/01/26 08:36:18;;;;;;;19.50;9.27;;;0.30;99.90;;;4.03;54.92;97974.50;5031088;28;20049;-45
2023/01/26 08:38:50;;;;;;;14.60;8.90;;;0.30;99.90;;;4.00;55.42;97980.03;5030093;28;20037;-46
2023/01/26 08:41:18;;;;;;;20.17;7.87;;;0.30;99.90;;;3.98;55.18;97980.13;5029812;28;20516;-45
2023/01/26 08:43:46;;;;;;;13.87;7.43;;;0.30;99.90;;;4.01;54.90;97973.78;5031262;28;20041;-44
2023/01/26 08:46:14;;;;;;;12.30;6.67;;;0.30;99.90;;;4.05;55.00;97969.97;5030062;28;20513;-48
2023/01/26 08:48:42;;;;;;;16.23;8.27;;;0.40;99.90;;;4.07;55.18;97968.06;5031298;28;20425;-45
2023/01/26 08:51:09;;;;;;;13.30;7.07;;;0.40;99.90;;;4.09;54.84;97971.41;5030598;28;20049;-39
2023/01/26 08:53:37;;;;;;;16.83;7.37;;;0.40;99.90;;;4.03;55.10;97971.88;5031475;28;20045;-40
2023/01/26 08:56:09;;;;;;;19.20;8.73;;;0.30;99.90;;;3.97;55.02;97974.97;5031305;28;20049;-40
2023/01/26 08:58:37;;;;;;;12.47;6.50;;;0.20;99.90;;;3.90;55.07;97980.69;5030143;28;20049;-39
2023/01/26 09:01:15;;;;;;;12.33;6.57;;;0.20;99.90;;;3.90;55.14;97972.78;5029324;28;20473;-39
2023/01/26 09:03:43;;;;;;;15.50;7.67;;;0.20;99.90;;;3.90;55.36;97969.31;5030011;28;20049;-40
2023/01/26 09:06:13;;;;;;;13.47;6.63;;;0.20;99.90;;;3.92;54.84;97973.50;5024687;28;20053;-40
2023/01/26 09:08:41;;;;;;;14.03;6.30;;;0.20;99.90;;;3.92;54.59;97973.50;5029670;28;20041;-39
2023/01/26 09:11:10;;;;;;;13.90;6.90;;;0.10;99.90;;;3.93;55.12;97974.34;5029158;28;20418;-39
2023/01/26 09:13:39;;;;;;;15.30;6.67;;;0.20;99.90;;;3.91;55.23;97969.19;5015377;28;20477;-39
2023/01/26 09:16:17;;;;;;;14.20;7.00;;;0.20;99.90;;;3.86;55.02;97965.22;5022078;28;20041;-39
2023/01/26 09:18:50;;;;;;;14.10;7.53;;;0.10;99.90;;;3.91;54.99;97969.19;5007433;28;20497;-39
2023/01/26 09:21:18;;;;;;;12.40;7.20;;;0.20;99.90;;;3.95;55.16;97967.16;5020929;28;20042;-39
2023/01/26 09:23:46;;;;;;;15.63;7.43;;;0.30;99.90;;;3.98;54.79;97979.28;5025318;28;20053;-39
2023/01/26 09:26:14;;;;;;;15.77;9.10;;;0.30;99.90;;;4.06;55.19;97975.13;5022271;28;20060;-40
2023/01/26 09:28:42;;;;;;;10.77;5.80;;;0.40;99.90;;;4.13;54.83;97972.91;5023734;28;20049;-39
2023/01/26 09:31:11;;;;;;;10.23;6.80;;;0.40;99.90;;;4.14;54.84;97972.75;5023147;28;20042;-40
2023/01/26 09:33:39;;;;;;;14.03;6.50;;;0.50;99.90;;;4.18;54.44;97970.75;5023578;28;20049;-39
2023/01/26 09:36:09;;;;;;;14.00;6.57;;;0.50;99.90;;;4.16;54.22;97975.28;5024300;28;20424;-40
2023/01/26 09:38:38;;;;;;;13.60;6.77;;;0.40;99.90;;;4.12;54.36;97974.69;5038443;28;20401;-39
2023/01/26 09:41:42;;;;;;;13.57;6.87;;;0.40;99.90;;;4.09;54.78;97984.59;5021260;28;20527;-40
2023/01/26 09:44:18;;;;;;;13.37;6.67;;;0.40;99.90;;;4.11;54.48;97978.28;5023649;28;20045;-39
2023/01/26 09:47:17;;;;;;;17.10;8.47;;;0.40;99.90;;;4.12;54.84;97981.75;5008386;28;20057;-39
2023/01/26 09:49:53;;;;;;;17.43;9.60;;;0.40;99.90;;;4.13;54.58;97980.81;5027355;28;20052;-40
2023/01/26 09:52:48;;;;;;;14.80;7.67;;;0.40;99.90;;;4.10;54.32;97979.22;5026853;28;20076;-40
2023/01/26 09:55:20;;;;;;;18.70;10.63;;;0.40;99.90;;;4.03;54.94;97975.38;5028267;28;20049;-39
2023/01/26 09:58:03;;;;;;;19.00;10.87;;;0.20;99.90;;;3.96;54.63;97979.41;5027268;28;20034;-39
2023/01/26 10:00:51;;;;;;;15.47;9.00;;;0.20;99.90;;;3.91;54.96;97979.72;5027545;28;20045;-40
2023/01/26 10:03:47;;;;;;;16.00;9.07;;;0.20;99.90;;;3.87;54.63;97975.63;5026632;28;20381;-40
2023/01/26 10:06:27;;;;;;;17.03;8.37;;;0.10;99.90;;;3.90;55.11;97974.59;5029355;28;20057;-40
2023/01/26 10:09:28;;;;;;;20.40;8.47;;;0.20;99.90;;;3.86;54.92;97973.13;5028181;28;20037;-40
2023/01/26 10:12:15;;;;;;;15.80;8.03;;;0.20;99.90;;;3.87;55.10;97974.78;5028041;28;20365;-41
2023/01/26 10:15:11;;;;;;;16.27;7.50;;;0.20;99.90;;;3.92;55.21;97980.56;5026283;28;20065;-40
2023/01/26 10:17:42;;;;;;;16.40;6.60;;;0.30;99.90;;;4.00;55.19;97970.31;5027539;28;20049;-39
2023/01/26 10:20:41;;;;;;;17.30;8.97;;;0.30;99.90;;;3.96;54.96;97968.88;5027226;28;20060;-40
2023/01/26 10:23:22;;;;;;;19.80;9.33;;;0.40;99.90;;;4.02;54.89;97965.78;5026808;28;20551;-40
2023/01/26 10:25:53;;;;;;;17.60;9.50;;;0.40;99.90;;;4.02;54.97;97967.56;5028107;28;20041;-40
2023/01/26 10:28:28;;;;;;;16.00;8.43;;;0.40;99.90;;;3.98;55.11;97969.59;5022524;28;20504;-40
2023/01/26 10:30:56;;;;;;;21.43;8.63;;;0.30;99.90;;;3.91;54.95;97974.44;5042042;28;20049;-40
2023/01/26 10:33:33;;;;;;;16.27;7.87;;;0.20;99.90;;;3.86;55.73;97973.13;5022884;28;20056;-39
2023/01/26 10:36:06;;;;;;;15.70;8.27;;;0.20;99.90;;;3.83;55.51;97966.25;5026077;28;20064;-40
2023/01/26 10:38:34;;;;;;;17.40;8.63;;;0.20;99.90;;;3.84;55.75;97972.38;5027113;28;20046;-39
2023/01/26 10:41:27;;;;;;;16.37;7.97;;;0.20;99.90;;;3.83;55.60;97965.44;5025372;28;20382;-40
2023/01/26 10:44:02;;;;;;;17.50;8.70;;;0.20;99.90;;;3.85;55.66;97972.25;5022341;28;20065;-39
2023/01/26 10:46:37;;;;;;;20.17;8.43;;;0.20;99.90;;;3.84;55.21;97975.88;5024097;28;20056;-39
2023/01/26 10:49:08;;;;;;;18.60;8.43;;;0.20;99.90;;;3.89;55.30;97967.63;5026022;28;20053;-40
2023/01/26 10:51:40;;;;;;;20.03;9.90;;;0.30;99.90;;;3.92;55.41;97955.06;5027668;28;20064;-39
2023/01/26 10:54:23;;;;;;;17.33;8.70;;;0.40;99.90;;;3.91;55.42;97961.28;5027127;28;20045;-40
2023/01/26 10:57:20;;;;;;;18.10;8.63;;;0.40;99.90;;;3.92;55.49;97962.97;5027525;28;20044;-40
2023/01/26 11:00:06;;;;;;;12.93;7.77;;;0.40;99.90;;;3.88;55.59;97961.50;5015978;28;20062;-40
2023/01/26 11:02:35;;;;;;;16.33;7.70;;;0.40;99.90;;;3.85;55.64;97963.53;5026072;28;20080;-39
2023/01/26 11:05:06;;;;;;;16.20;6.57;;;0.30;99.90;;;3.86;55.37;97962.59;5026006;28;20049;-39
2023/01/26 11:07:47;;;;;;;15.37;6.87;;;0.30;99.90;;;3.88;55.48;97952.78;5027304;28;20057;-39
2023/01/26 11:10:30;;;;;;;13.20;6.87;;;0.30;99.90;;;3.92;55.10;97951.59;5007472;28;20053;-39
2023/01/26 11:13:21;;;;;;;16.48;6.70;;;0.30;99.90;;;3.80;55.51;97953.34;5023257;28;20305;-40
2023/01/26 11:16:00;;;;;;;14.40;7.80;;;0.30;99.90;;;3.86;55.26;97944.16;5024077;28;20056;-39
2023/01/26 11:18:57;;;;;;;15.37;7.07;;;0.30;99.90;;;3.85;55.80;97943.28;5026827;28;20055;-39
2023/01/26 11:21:38;;;;;;;17.33;8.03;;;0.30;99.90;;;3.82;55.43;97938.25;5027204;28;20041;-40
2023/01/26 11:24:48;;;;;;;13.30;7.20;;;0.20;99.90;;;3.82;55.58;97932.13;5028076;28;20037;-39
2023/01/26 11:27:50;;;;;;;13.23;6.93;;;0.30;99.90;;;3.83;55.45;97934.66;5026343;28;20042;-39
2023/01/26 11:30:53;;;;;;;13.40;6.83;;;0.30;99.90;;;3.87;55.47;97935.28;5032541;28;20053;-39
2023/01/26 11:34:03;;;;;;;35.70;14.43;;;0.40;99.90;;;3.97;55.36;97928.38;5031917;28;20500;-40
2023/01/26 11:37:35;;;;;;;16.93;8.67;;;0.50;99.90;;;3.88;54.99;97927.28;5032474;28;20042;-40
2023/01/26 11:40:36;;;;;;;18.80;8.50;;;0.40;99.90;;;3.92;55.17;97920.00;5026989;28;20041;-39
2023/01/26 11:43:29;;;;;;;16.23;7.93;;;0.40;99.90;;;3.91;55.78;97923.56;5028126;28;20045;-41